Time;durP1;ratioP1;P1;durP2;ratioP2;P2;SDS_P1;SDS_P2;PMS_P1;PMS_P2;Temp;Humidity;BMP_temperature;BMP_pressure;BME280_temperature;BME280_humidity;BME280_pressure;Samples;Min_cycle;Max_cycle;Signal;HPM_P1;HPM_P2
2022/07/08 00:01:00;;;;;;;4.80;1.20;;;25.20;45.40;;;;;;6139289;23;20388;-81
2022/07/08 00:03:26;;;;;;;3.00;1.30;;;25.10;45.30;;;;;;6139669;23;20416;-81
2022/07/08 00:05:53;;;;;;;4.30;1.20;;;25.10;45.30;;;;;;6138178;23;20384;-81
2022/07/08 00:08:20;;;;;;;2.87;2.13;;;25.10;45.30;;;;;;6113526;23;20385;-81
2022/07/08 00:10:46;;;;;;;2.13;1.20;;;25.10;45.30;;;;;;6113157;23;20384;-81
2022/07/08 00:13:11;;;;;;;3.47;1.20;;;25.10;45.20;;;;;;6112623;23;20407;-79
2022/07/08 00:15:37;;;;;;;2.33;1.63;;;25.10;45.20;;;;;;6138846;23;20413;-79
2022/07/08 00:18:03;;;;;;;1.97;1.40;;;25.10;45.00;;;;;;6138232;23;20192;-81
2022/07/08 00:20:30;;;;;;;2.53;1.17;;;25.10;45.00;;;;;;6113535;23;20161;-81
2022/07/08 00:22:59;;;;;;;2.93;1.30;;;25.10;45.00;;;;;;6137813;23;20232;-81
2022/07/08 00:25:25;;;;;;;2.43;1.10;;;25.10;45.00;;;;;;6113676;23;20385;-81
2022/07/08 00:27:53;;;;;;;2.63;1.27;;;25.10;44.90;;;;;;6113926;23;20392;-81
2022/07/08 00:30:21;;;;;;;4.43;1.33;;;25.10;44.90;;;;;;6141186;23;20389;-83
2022/07/08 00:32:52;;;;;;;1.87;1.20;;;25.00;44.80;;;;;;6144199;23;20373;-82
2022/07/08 00:35:18;;;;;;;2.63;1.50;;;25.00;44.80;;;;;;6119276;23;20385;-82
2022/07/08 00:37:46;;;;;;;1.63;1.13;;;25.00;44.70;;;;;;6143599;23;20404;-83
2022/07/08 00:40:12;;;;;;;2.97;1.50;;;25.00;44.70;;;;;;6118147;23;20851;-82
2022/07/08 00:46:06;;;;;;;2.20;1.23;;;25.00;44.60;;;;;;6143906;23;20352;-83
2022/07/08 00:48:34;;;;;;;2.37;1.30;;;24.90;44.50;;;;;;6094610;23;20449;-83
2022/07/08 00:51:03;;;;;;;2.00;1.17;;;24.90;44.50;;;;;;6144046;23;20377;-83
2022/07/08 00:53:33;;;;;;;1.73;1.20;;;24.90;44.50;;;;;;6144377;23;20380;-83
2022/07/08 00:56:02;;;;;;;1.67;1.00;;;24.90;44.50;;;;;;6112982;23;20488;-83
2022/07/08 00:58:34;;;;;;;4.13;1.70;;;24.90;44.40;;;;;;6113447;23;20452;-83
2022/07/08 01:01:02;;;;;;;3.37;1.40;;;24.90;44.40;;;;;;6113456;23;20382;-83
2022/07/08 01:03:28;;;;;;;1.90;1.27;;;24.80;44.40;;;;;;6112520;23;20450;-81
2022/07/08 01:05:57;;;;;;;3.67;1.20;;;24.80;44.30;;;;;;6085878;23;20392;-81
2022/07/08 01:08:23;;;;;;;1.23;0.80;;;24.80;44.40;;;;;;6111354;23;20401;-81
2022/07/08 01:10:52;;;;;;;1.53;1.00;;;24.80;44.40;;;;;;6110358;23;20382;-83
2022/07/08 01:13:30;;;;;;;;;;;;;;;;;;;;;
2022/07/08 01:15:57;;;;;;;4.03;1.33;;;24.80;44.40;;;;;;6116755;23;20358;-83
2022/07/08 01:18:26;;;;;;;2.23;1.27;;;24.80;44.40;;;;;;6115103;23;20386;-83
2022/07/08 01:20:54;;;;;;;2.37;1.00;;;24.80;44.40;;;;;;6114362;23;20780;-83
2022/07/08 01:23:20;;;;;;;1.30;1.13;;;24.80;44.30;;;;;;6116359;23;20424;-83
2022/07/08 01:25:47;;;;;;;2.50;0.90;;;24.80;44.30;;;;;;6115257;23;20385;-83
2022/07/08 01:28:15;;;;;;;2.43;1.53;;;24.70;44.20;;;;;;6114996;23;20397;-83
2022/07/08 01:30:42;;;;;;;7.90;1.37;;;24.70;44.20;;;;;;6115211;23;20381;-83
2022/07/08 01:33:08;;;;;;;1.93;1.13;;;24.80;44.30;;;;;;6114714;23;20432;-83
2022/07/08 01:35:34;;;;;;;1.20;1.03;;;24.70;44.30;;;;;;6114684;23;20389;-81
2022/07/08 01:38:00;;;;;;;2.23;1.33;;;24.70;44.30;;;;;;6110237;23;20417;-81
2022/07/08 01:40:26;;;;;;;2.50;1.33;;;24.70;44.30;;;;;;6110119;23;20732;-80
2022/07/08 01:42:51;;;;;;;3.50;1.40;;;24.70;44.40;;;;;;6110470;23;20205;-80
2022/07/08 01:45:17;;;;;;;3.43;1.10;;;24.70;44.30;;;;;;6109567;23;20457;-80
2022/07/08 01:47:43;;;;;;;1.30;1.00;;;24.80;44.40;;;;;;6113769;23;20161;-83
2022/07/08 01:50:09;;;;;;;1.50;1.20;;;24.80;44.40;;;;;;6116188;23;20154;-83
2022/07/08 01:52:36;;;;;;;2.43;1.40;;;24.70;44.30;;;;;;6117184;23;20378;-83
2022/07/08 01:55:03;;;;;;;2.73;1.40;;;24.70;44.30;;;;;;6120208;23;20404;-83
2022/07/08 01:57:29;;;;;;;1.83;1.00;;;24.70;44.30;;;;;;6145879;23;20368;-83
2022/07/08 01:59:54;;;;;;;2.60;1.43;;;24.70;44.30;;;;;;6144681;23;20401;-83
2022/07/08 02:02:24;;;;;;;1.50;1.00;;;24.70;44.30;;;;;;6119649;23;20408;-82
2022/07/08 02:04:50;;;;;;;4.13;1.00;;;24.80;44.40;;;;;;6119437;23;20161;-82
2022/07/08 02:07:16;;;;;;;1.20;1.00;;;24.70;44.40;;;;;;6145511;23;20364;-82
2022/07/08 02:09:42;;;;;;;1.47;0.90;;;24.70;44.40;;;;;;6117106;23;20383;-80
2022/07/08 02:12:21;;;;;;;3.57;1.37;;;24.70;44.40;;;;;;6139964;23;20385;-83
2022/07/08 02:15:03;;;;;;;2.50;1.47;;;24.70;44.50;;;;;;6119086;23;20372;-82
2022/07/08 02:17:34;;;;;;;3.03;2.00;;;24.70;44.40;;;;;;6119055;23;20734;-83
2022/07/08 02:20:00;;;;;;;2.73;1.40;;;24.70;44.40;;;;;;6118182;23;20387;-83
2022/07/08 02:22:27;;;;;;;2.27;1.23;;;24.70;44.50;;;;;;6143822;23;20354;-82
2022/07/08 02:24:53;;;;;;;1.93;1.20;;;24.70;44.50;;;;;;6143240;23;20373;-82
2022/07/08 02:27:19;;;;;;;2.60;1.23;;;24.70;44.50;;;;;;6118746;23;20377;-82
2022/07/08 02:29:45;;;;;;;1.60;1.17;;;24.70;44.50;;;;;;6118856;23;20157;-83
2022/07/08 02:32:12;;;;;;;2.50;1.17;;;24.60;44.40;;;;;;6140528;23;20460;-81
2022/07/08 02:34:39;;;;;;;3.40;1.50;;;24.60;44.40;;;;;;6139381;23;20381;-80
2022/07/08 02:37:05;;;;;;;2.03;1.03;;;24.60;44.40;;;;;;6139739;23;20902;-80
2022/07/08 02:39:30;;;;;;;2.40;0.90;;;24.60;44.40;;;;;;6139324;23;20381;-80
2022/07/08 02:41:56;;;;;;;3.63;1.30;;;24.60;44.30;;;;;;6118256;23;20185;-83
2022/07/08 02:44:22;;;;;;;4.20;1.43;;;24.60;44.30;;;;;;6142395;23;20184;-83
2022/07/08 02:46:49;;;;;;;2.83;1.20;;;24.60;44.30;;;;;;6142855;23;20153;-83
2022/07/08 02:49:15;;;;;;;2.97;1.27;;;24.60;44.30;;;;;;6143792;23;20369;-83
2022/07/08 02:51:41;;;;;;;4.80;1.33;;;24.60;44.30;;;;;;6143510;23;20408;-83
2022/07/08 02:57:29;;;;;;;2.90;1.30;;;24.60;44.30;;;;;;6141661;23;20392;-83
2022/07/08 02:59:56;;;;;;;3.40;1.73;;;24.50;44.20;;;;;;6118526;23;20400;-83
2022/07/08 03:02:21;;;;;;;1.63;1.40;;;24.50;44.20;;;;;;6143036;23;20389;-83
2022/07/08 03:04:48;;;;;;;5.70;1.40;;;24.50;44.20;;;;;;6142819;23;20388;-83
2022/07/08 03:07:14;;;;;;;1.50;1.10;;;24.50;44.20;;;;;;6144858;23;20149;-83
2022/07/08 03:09:40;;;;;;;3.60;1.53;;;24.50;44.20;;;;;;6143031;23;20420;-82
2022/07/08 03:12:06;;;;;;;1.30;1.20;;;24.50;44.10;;;;;;6144291;23;20372;-83
2022/07/08 03:14:32;;;;;;;2.90;1.63;;;24.50;44.10;;;;;;6144361;23;20154;-83
2022/07/08 03:16:58;;;;;;;2.67;1.60;;;24.50;44.10;;;;;;6117767;23;20385;-83
2022/07/08 03:19:24;;;;;;;2.27;1.10;;;24.50;44.10;;;;;;6142252;23;20153;-83
2022/07/08 03:21:50;;;;;;;1.70;1.10;;;24.50;44.00;;;;;;6141469;23;20385;-81
2022/07/08 03:24:15;;;;;;;1.50;0.93;;;24.50;44.00;;;;;;6139089;23;20542;-81
2022/07/08 03:26:42;;;;;;;3.50;2.00;;;24.50;44.00;;;;;;6114248;23;20180;-82
2022/07/08 03:29:09;;;;;;;1.23;1.00;;;24.50;44.00;;;;;;6144486;23;20486;-82
2022/07/08 03:31:35;;;;;;;2.50;1.40;;;24.50;44.00;;;;;;6119736;23;20389;-82
2022/07/08 03:34:01;;;;;;;4.03;1.40;;;24.40;43.90;;;;;;6118883;23;20173;-83
2022/07/08 03:36:27;;;;;;;3.60;1.40;;;24.40;44.00;;;;;;6144607;23;20204;-83
2022/07/08 03:38:53;;;;;;;2.03;1.00;;;24.40;43.90;;;;;;6117475;23;20217;-83
2022/07/08 03:41:23;;;;;;;4.10;1.47;;;24.40;43.90;;;;;;6143308;23;20244;-83
2022/07/08 03:43:50;;;;;;;3.13;1.30;;;24.40;43.90;;;;;;6118388;23;20184;-82
2022/07/08 03:46:16;;;;;;;2.90;1.10;;;24.40;43.90;;;;;;6118861;23;20481;-82
2022/07/08 03:48:42;;;;;;;2.57;1.37;;;24.40;44.50;;;;;;6144381;23;20401;-82
2022/07/08 03:51:13;;;;;;;3.67;1.30;;;24.40;43.90;;;;;;6118786;23;20388;-83
2022/07/08 03:53:39;;;;;;;1.90;1.40;;;24.40;43.90;;;;;;6117949;23;20520;-83
2022/07/08 03:56:07;;;;;;;2.03;1.10;;;24.30;43.80;;;;;;6117177;23;20404;-83
2022/07/08 03:58:35;;;;;;;3.30;1.03;;;24.40;43.90;;;;;;6141986;23;20405;-83
2022/07/08 04:01:02;;;;;;;2.30;1.20;;;24.30;43.80;;;;;;6142371;23;20389;-83
2022/07/08 04:03:28;;;;;;;3.33;1.20;;;24.40;43.90;;;;;;6116325;23;20420;-82
2022/07/08 04:05:53;;;;;;;1.60;1.17;;;24.30;43.80;;;;;;6114901;23;20412;-81
2022/07/08 04:08:21;;;;;;;2.23;1.10;;;24.30;43.80;;;;;;6137980;23;20156;-80
2022/07/08 04:10:47;;;;;;;1.50;1.10;;;24.30;43.70;;;;;;6138896;23;20526;-81
2022/07/08 04:13:14;;;;;;;1.93;1.00;;;24.30;43.70;;;;;;6137233;23;20467;-80
2022/07/08 04:15:40;;;;;;;2.70;1.07;;;24.30;43.70;;;;;;6137795;23;20169;-81
2022/07/08 04:18:05;;;;;;;2.43;1.40;;;24.30;43.70;;;;;;6138181;23;20438;-80
2022/07/08 04:20:31;;;;;;;1.63;1.00;;;24.30;43.70;;;;;;6137963;23;20161;-80
2022/07/08 04:22:57;;;;;;;3.37;1.40;;;24.30;43.70;;;;;;6112888;23;20624;-81
2022/07/08 04:25:24;;;;;;;1.70;1.10;;;24.30;43.70;;;;;;6137507;23;20149;-80
2022/07/08 04:27:58;;;;;;;2.20;1.70;;;24.30;43.60;;;;;;6139505;23;20153;-81
2022/07/08 04:30:25;;;;;;;3.00;1.30;;;24.30;43.70;;;;;;6137653;23;20377;-80
2022/07/08 04:32:51;;;;;;;3.30;1.27;;;24.30;43.60;;;;;;6137442;23;20412;-80
2022/07/08 04:35:16;;;;;;;1.60;1.00;;;24.30;43.60;;;;;;6137416;23;20389;-80
2022/07/08 04:37:42;;;;;;;1.73;1.13;;;24.30;43.60;;;;;;6112722;23;20392;-80
2022/07/08 04:40:09;;;;;;;2.77;1.33;;;24.30;43.60;;;;;;6137016;23;20539;-80
2022/07/08 04:42:35;;;;;;;2.60;1.20;;;24.30;43.60;;;;;;6112664;23;20157;-80
2022/07/08 04:45:01;;;;;;;2.40;1.10;;;24.20;43.60;;;;;;6112544;23;20392;-80
2022/07/08 04:47:27;;;;;;;2.00;1.50;;;24.20;43.60;;;;;;6113235;23;20153;-80
2022/07/08 04:53:14;;;;;;;1.83;1.10;;;24.30;43.70;;;;;;6138763;23;20143;-80
2022/07/08 04:55:40;;;;;;;2.57;0.87;;;24.20;43.60;;;;;;6113311;23;20385;-80
2022/07/08 04:58:06;;;;;;;1.80;1.20;;;24.20;43.60;;;;;;6108894;23;20170;-80
2022/07/08 05:00:33;;;;;;;1.77;1.00;;;24.20;43.60;;;;;;6110831;23;20164;-80
2022/07/08 05:03:00;;;;;;;1.80;1.10;;;24.20;43.70;;;;;;6109894;23;20449;-80
2022/07/08 05:05:27;;;;;;;2.43;1.20;;;24.20;43.70;;;;;;6110385;23;20853;-80
2022/07/08 05:07:54;;;;;;;2.90;1.40;;;24.30;43.80;;;;;;6111281;23;20374;-80
2022/07/08 05:10:22;;;;;;;2.03;1.53;;;24.20;43.60;;;;;;6110717;23;20664;-80
2022/07/08 05:12:49;;;;;;;2.30;1.27;;;24.30;43.60;;;;;;6087429;23;20397;-79
2022/07/08 05:15:15;;;;;;;2.17;1.20;;;24.20;43.60;;;;;;6111767;23;20710;-80
2022/07/08 05:21:04;;;;;;;5.00;1.20;;;24.30;43.80;;;;;;6111306;23;20374;-79
2022/07/08 05:23:30;;;;;;;3.47;1.40;;;24.30;43.80;;;;;;6110221;23;20426;-80
2022/07/08 05:25:56;;;;;;;2.43;1.20;;;24.30;43.80;;;;;;6109988;23;20393;-80
2022/07/08 05:28:21;;;;;;;3.30;1.00;;;24.30;43.90;;;;;;6109694;23;20158;-79
2022/07/08 05:30:50;;;;;;;2.30;1.10;;;24.30;43.90;;;;;;6110524;23;20382;-80
2022/07/08 05:33:16;;;;;;;1.53;1.10;;;24.30;43.90;;;;;;6110347;23;20164;-80
2022/07/08 05:35:42;;;;;;;2.17;1.47;;;24.30;43.90;;;;;;6110668;23;20437;-80
2022/07/08 05:38:08;;;;;;;2.30;1.00;;;24.40;44.70;;;;;;6111647;23;20381;-80
2022/07/08 05:40:34;;;;;;;1.23;0.93;;;24.40;44.00;;;;;;6112235;23;20437;-80
2022/07/08 05:43:00;;;;;;;2.20;0.97;;;24.40;44.00;;;;;;6109758;23;20235;-80
2022/07/08 05:48:48;;;;;;;1.90;1.07;;;24.40;43.90;;;;;;6112307;23;20137;-80
2022/07/08 05:51:13;;;;;;;1.67;1.00;;;24.40;43.90;;;;;;6110780;23;20390;-79
2022/07/08 05:53:39;;;;;;;1.90;1.20;;;24.40;43.90;;;;;;6110959;23;20150;-79
2022/07/08 05:56:05;;;;;;;1.17;0.80;;;24.40;43.80;;;;;;6110595;23;20158;-80
2022/07/08 05:58:31;;;;;;;2.20;1.13;;;24.50;43.90;;;;;;6110387;23;20173;-80
2022/07/08 06:00:57;;;;;;;1.63;0.90;;;24.50;43.90;;;;;;6112154;23;20386;-80
2022/07/08 06:03:22;;;;;;;1.40;1.07;;;24.50;43.80;;;;;;6111883;23;20192;-79
2022/07/08 06:05:48;;;;;;;1.40;0.90;;;24.50;43.80;;;;;;6112105;23;20197;-80
2022/07/08 06:08:14;;;;;;;2.23;0.97;;;24.50;43.80;;;;;;6112884;23;20162;-79
2022/07/08 06:10:40;;;;;;;3.03;1.73;;;24.50;43.80;;;;;;6113927;23;20394;-80
2022/07/08 06:16:28;;;;;;;2.33;0.90;;;24.50;43.80;;;;;;6112968;23;20141;-79
2022/07/08 06:18:54;;;;;;;1.50;1.00;;;24.50;43.90;;;;;;6111578;23;20385;-79
2022/07/08 06:21:20;;;;;;;1.77;1.57;;;24.50;43.90;;;;;;6112620;23;20418;-79
2022/07/08 06:23:46;;;;;;;2.43;1.10;;;24.50;43.90;;;;;;6112442;23;20177;-79
2022/07/08 06:26:12;;;;;;;1.57;0.90;;;24.50;43.90;;;;;;6113525;23;20142;-81
2022/07/08 06:32:00;;;;;;;2.67;1.10;;;24.60;44.00;;;;;;6112254;23;20349;-80
2022/07/08 06:34:31;;;;;;;2.53;1.20;;;24.60;44.10;;;;;;6111772;23;20390;-80
2022/07/08 06:36:57;;;;;;;1.70;1.00;;;24.60;44.00;;;;;;6111297;23;20386;-80
2022/07/08 06:39:26;;;;;;;1.40;1.00;;;24.60;44.00;;;;;;6113314;23;20384;-78
2022/07/08 06:41:52;;;;;;;1.43;1.00;;;24.60;44.00;;;;;;6110477;23;20481;-80
2022/07/08 06:47:24;;;;;;;1.90;1.53;;;24.70;44.00;;;;;;6090501;23;20168;-82
2022/07/08 06:49:52;;;;;;;2.53;1.00;;;24.70;44.00;;;;;;6114331;23;20390;-82
2022/07/08 06:52:20;;;;;;;1.20;0.87;;;24.70;44.00;;;;;;6115003;23;20409;-82
2022/07/08 06:54:47;;;;;;;2.80;1.30;;;24.70;43.90;;;;;;6115606;23;20366;-82
2022/07/08 06:57:14;;;;;;;2.23;1.33;;;24.70;43.90;;;;;;6114916;23;20414;-82
2022/07/08 06:59:42;;;;;;;1.37;0.80;;;24.80;44.00;;;;;;6119064;23;20440;-82
2022/07/08 07:02:08;;;;;;;1.83;0.80;;;24.80;44.00;;;;;;6143713;23;20384;-82
2022/07/08 07:04:35;;;;;;;1.63;1.07;;;24.80;44.00;;;;;;6145215;23;20427;-82
2022/07/08 07:07:01;;;;;;;1.20;0.87;;;24.80;44.50;;;;;;6141910;23;20400;-82
2022/07/08 07:09:26;;;;;;;2.13;1.00;;;24.80;44.00;;;;;;6144301;23;20388;-82
2022/07/08 07:11:55;;;;;;;1.93;0.87;;;24.80;44.00;;;;;;6144727;23;20181;-82
2022/07/08 07:14:22;;;;;;;1.83;0.97;;;24.80;44.00;;;;;;6144104;23;20389;-82
2022/07/08 07:16:48;;;;;;;2.00;1.10;;;24.80;44.00;;;;;;6144822;23;20381;-82
2022/07/08 07:19:17;;;;;;;1.27;1.00;;;24.80;44.10;;;;;;6143914;23;20381;-81
2022/07/08 07:21:44;;;;;;;1.40;0.80;;;24.80;44.10;;;;;;6095663;23;20397;-81
2022/07/08 07:24:09;;;;;;;1.20;0.80;;;24.80;44.00;;;;;;6144278;23;20523;-81
2022/07/08 07:26:37;;;;;;;1.57;1.47;;;24.80;44.00;;;;;;6117408;23;20408;-82
2022/07/08 07:29:04;;;;;;;1.23;0.90;;;24.80;43.90;;;;;;6119233;23;20173;-81
2022/07/08 07:31:35;;;;;;;2.53;1.07;;;24.80;43.90;;;;;;6143454;23;20377;-81
2022/07/08 07:34:08;;;;;;;2.47;1.27;;;24.80;43.90;;;;;;6119098;23;20408;-82
2022/07/08 07:36:39;;;;;;;2.03;1.00;;;24.80;43.90;;;;;;6119859;23;20397;-82
2022/07/08 07:42:37;;;;;;;1.40;1.13;;;24.80;43.90;;;;;;6145486;23;20418;-82
2022/07/08 07:45:07;;;;;;;1.43;0.77;;;24.80;44.00;;;;;;6144710;23;20397;-82
2022/07/08 07:47:35;;;;;;;2.27;0.97;;;24.80;44.00;;;;;;6118382;23;20392;-82
2022/07/08 07:50:07;;;;;;;1.93;1.17;;;24.80;44.10;;;;;;6118427;23;20393;-82
2022/07/08 07:52:33;;;;;;;1.53;0.97;;;24.80;44.10;;;;;;6143861;23;20422;-83
2022/07/08 07:55:01;;;;;;;2.63;0.93;;;24.80;44.10;;;;;;6142991;23;20420;-82
2022/07/08 07:57:28;;;;;;;2.77;0.93;;;24.80;44.10;;;;;;6117393;23;20239;-81
2022/07/08 07:59:56;;;;;;;2.00;0.80;;;24.90;44.20;;;;;;6142479;23;20374;-83
2022/07/08 08:02:22;;;;;;;1.73;0.80;;;24.90;44.20;;;;;;6117136;23;20421;-83
2022/07/08 08:04:48;;;;;;;1.87;1.13;;;24.90;44.20;;;;;;6117503;23;20432;-83
2022/07/08 08:07:14;;;;;;;2.40;0.83;;;24.90;44.10;;;;;;6143380;23;20434;-83
2022/07/08 08:09:40;;;;;;;1.90;0.90;;;24.90;44.10;;;;;;6143969;23;20349;-84
2022/07/08 08:15:32;;;;;;;2.47;1.00;;;25.00;44.20;;;;;;6143777;23;20377;-84
2022/07/08 08:17:59;;;;;;;1.37;0.83;;;24.90;44.10;;;;;;6143325;23;20376;-84
2022/07/08 08:20:29;;;;;;;1.80;1.10;;;24.90;44.10;;;;;;6144494;23;20377;-84
2022/07/08 08:22:55;;;;;;;2.23;1.20;;;25.00;44.10;;;;;;6118201;23;20435;-83
2022/07/08 08:25:22;;;;;;;1.20;0.97;;;25.00;44.10;;;;;;6117325;23;20385;-84
2022/07/08 08:27:48;;;;;;;1.40;1.10;;;25.00;44.20;;;;;;6143104;23;20381;-84
2022/07/08 08:30:15;;;;;;;2.90;1.20;;;25.00;44.20;;;;;;6142611;23;20417;-84
2022/07/08 08:32:41;;;;;;;1.10;0.80;;;25.00;44.30;;;;;;6118575;23;20447;-84
2022/07/08 08:35:09;;;;;;;1.77;1.07;;;25.00;44.20;;;;;;6142842;23;20369;-84
2022/07/08 08:37:44;;;;;;;1.70;1.03;;;25.00;44.30;;;;;;6117850;23;20463;-83
2022/07/08 08:40:11;;;;;;;1.53;0.90;;;25.00;44.30;;;;;;6118381;23;20376;-83
2022/07/08 08:42:43;;;;;;;3.30;1.07;;;25.00;44.30;;;;;;6117320;23;20757;-84
2022/07/08 08:45:10;;;;;;;2.10;1.10;;;25.00;44.30;;;;;;6118002;23;20424;-83
2022/07/08 08:47:36;;;;;;;2.90;1.20;;;25.00;44.30;;;;;;6117382;23;20381;-83
2022/07/08 08:52:50;;;;;;;2.10;1.20;;;25.00;44.30;;;;;;6144068;23;20353;-83
2022/07/08 08:55:26;;;;;;;1.90;1.03;;;25.00;44.40;;;;;;6118452;23;20391;-84
2022/07/08 08:57:57;;;;;;;1.97;0.83;;;25.10;44.40;;;;;;6145134;23;20393;-84
2022/07/08 09:00:24;;;;;;;2.50;0.90;;;25.10;44.40;;;;;;6144792;23;20356;-83
2022/07/08 09:02:51;;;;;;;1.83;1.00;;;25.10;44.40;;;;;;6118721;23;20500;-84
2022/07/08 09:05:18;;;;;;;3.37;0.80;;;25.10;44.40;;;;;;6144683;23;20429;-84
2022/07/08 09:07:45;;;;;;;1.57;0.93;;;25.10;44.40;;;;;;6118030;23;20388;-84
2022/07/08 09:10:12;;;;;;;1.63;1.00;;;25.10;44.40;;;;;;6093988;23;20388;-84
2022/07/08 09:12:38;;;;;;;1.67;0.80;;;25.10;44.50;;;;;;6118132;23;20380;-83
2022/07/08 09:15:05;;;;;;;2.03;1.00;;;25.10;44.40;;;;;;6142454;23;20436;-84
2022/07/08 09:17:31;;;;;;;1.57;1.07;;;25.10;44.40;;;;;;6117552;23;20159;-84
2022/07/08 09:20:02;;;;;;;1.13;0.83;;;25.10;44.50;;;;;;6118055;23;20384;-84
2022/07/08 09:22:28;;;;;;;1.50;1.03;;;25.10;44.50;;;;;;6118186;23;20145;-84
2022/07/08 09:24:56;;;;;;;2.30;1.03;;;25.10;44.50;;;;;;6118057;23;20439;-84
2022/07/08 09:27:22;;;;;;;1.60;1.10;;;25.10;44.40;;;;;;6143594;23;20377;-84
2022/07/08 09:29:58;;;;;;;1.40;0.90;;;25.10;44.30;;;;;;6144672;23;20377;-84
2022/07/08 09:32:41;;;;;;;;;;;;;;;;;;;;;
2022/07/08 09:35:12;;;;;;;1.30;0.90;;;25.10;44.30;;;;;;6145211;23;20350;-84
2022/07/08 09:37:39;;;;;;;1.30;1.00;;;25.10;44.30;;;;;;6144141;23;20380;-85
2022/07/08 09:40:17;;;;;;;1.97;1.07;;;25.10;44.20;;;;;;6120249;23;20381;-84
2022/07/08 09:42:43;;;;;;;1.87;0.80;;;25.10;44.20;;;;;;6120446;23;20392;-84
2022/07/08 09:45:13;;;;;;;1.27;0.87;;;25.10;44.20;;;;;;6144294;23;20384;-84
2022/07/08 09:47:39;;;;;;;1.73;1.10;;;25.10;44.20;;;;;;6120849;23;20153;-84
2022/07/08 09:50:09;;;;;;;2.60;1.10;;;25.10;44.20;;;;;;6145321;23;20852;-84
2022/07/08 09:52:43;;;;;;;0.90;0.70;;;25.10;44.20;;;;;;6120455;23;20384;-84
2022/07/08 09:55:09;;;;;;;2.50;1.07;;;25.20;44.30;;;;;;6118726;23;20991;-83
2022/07/08 09:57:40;;;;;;;2.03;1.00;;;25.20;44.30;;;;;;6144551;23;20428;-83
2022/07/08 10:00:06;;;;;;;1.33;0.80;;;25.10;44.30;;;;;;6119821;23;20152;-84
2022/07/08 10:02:32;;;;;;;1.40;0.90;;;25.20;44.30;;;;;;6119976;23;20408;-84
2022/07/08 10:05:02;;;;;;;2.60;1.40;;;25.20;44.30;;;;;;6145481;23;20376;-84
2022/07/08 10:07:31;;;;;;;1.27;1.00;;;25.20;44.30;;;;;;6143700;23;20377;-84
2022/07/08 10:09:57;;;;;;;5.77;1.57;;;25.20;44.40;;;;;;6119790;23;20435;-84
2022/07/08 10:12:23;;;;;;;1.87;1.03;;;25.20;44.30;;;;;;6142672;23;20387;-85
2022/07/08 10:14:51;;;;;;;1.50;0.90;;;25.20;44.40;;;;;;6145887;23;20373;-84
2022/07/08 10:17:22;;;;;;;1.90;1.00;;;25.20;44.40;;;;;;6145454;23;20388;-83
2022/07/08 10:19:49;;;;;;;1.37;0.90;;;25.20;44.40;;;;;;6145943;23;20392;-83
2022/07/08 10:22:17;;;;;;;2.03;1.00;;;25.20;44.40;;;;;;6119483;23;20389;-83
2022/07/08 10:24:45;;;;;;;1.77;1.10;;;25.20;44.40;;;;;;6145411;23;20424;-84
2022/07/08 10:27:11;;;;;;;2.63;1.37;;;25.20;44.40;;;;;;6145297;23;20385;-84
2022/07/08 10:29:39;;;;;;;2.30;1.00;;;25.20;44.30;;;;;;6144257;23;20441;-81
2022/07/08 10:32:27;;;;;;;1.30;0.90;;;25.20;44.30;;;;;;6144417;23;20428;-81
2022/07/08 10:35:11;;;;;;;1.20;1.00;;;25.20;44.30;;;;;;6144648;23;20372;-80
2022/07/08 10:38:05;;;;;;;1.27;0.97;;;25.20;44.90;;;;;;6118500;23;20761;-81
2022/07/08 10:40:48;;;;;;;1.33;0.87;;;25.20;44.30;;;;;;6115490;23;20381;-82
2022/07/08 10:43:28;;;;;;;1.57;0.90;;;25.20;44.30;;;;;;6118047;23;20424;-81
2022/07/08 10:46:01;;;;;;;1.90;1.20;;;25.20;44.30;;;;;;6117358;23;20825;-81
2022/07/08 10:48:28;;;;;;;0.93;0.70;;;25.20;44.30;;;;;;6117823;23;20387;-81
2022/07/08 10:50:54;;;;;;;1.60;0.90;;;25.20;44.30;;;;;;6118904;23;20381;-82
2022/07/08 10:53:23;;;;;;;1.63;0.90;;;25.20;44.30;;;;;;6145063;23;20701;-81
2022/07/08 10:55:49;;;;;;;1.20;0.90;;;25.20;44.30;;;;;;6118882;23;20389;-81
2022/07/08 10:58:15;;;;;;;1.27;0.90;;;25.20;44.30;;;;;;6145162;23;20411;-82
2022/07/08 11:04:26;;;;;;;2.07;1.10;;;25.30;44.30;;;;;;6144686;23;20185;-80
2022/07/08 11:06:51;;;;;;;1.30;1.00;;;25.30;44.40;;;;;;6117746;23;20392;-81
2022/07/08 11:09:17;;;;;;;2.50;1.50;;;25.20;44.30;;;;;;6143750;23;20377;-81
2022/07/08 11:11:48;;;;;;;3.20;2.73;;;25.20;44.40;;;;;;6140991;23;20153;-80
2022/07/08 11:14:14;;;;;;;2.90;2.43;;;25.20;44.40;;;;;;6143681;23;20388;-82
2022/07/08 11:16:43;;;;;;;5.20;3.30;;;25.30;44.50;;;;;;6117878;23;20396;-81
2022/07/08 11:19:11;;;;;;;4.00;3.60;;;25.30;44.50;;;;;;6120714;23;20415;-81
2022/07/08 11:21:36;;;;;;;4.10;3.70;;;25.20;44.40;;;;;;6122187;23;20405;-82
2022/07/08 11:24:03;;;;;;;5.10;3.40;;;25.30;44.60;;;;;;6121399;23;20424;-82
2022/07/08 11:26:29;;;;;;;4.93;3.77;;;25.30;44.60;;;;;;6122175;23;20161;-82
2022/07/08 11:28:59;;;;;;;6.20;3.77;;;25.30;44.50;;;;;;6122263;23;20384;-82
2022/07/08 11:31:26;;;;;;;4.30;3.70;;;25.30;44.50;;;;;;6123263;23;20403;-82
2022/07/08 11:33:52;;;;;;;4.60;3.60;;;25.30;44.50;;;;;;6148413;23;20384;-83
2022/07/08 11:36:21;;;;;;;5.60;3.50;;;25.30;44.50;;;;;;6148072;23;20369;-82
2022/07/08 11:38:49;;;;;;;4.97;3.57;;;25.30;44.50;;;;;;6148399;23;20372;-82
2022/07/08 11:41:17;;;;;;;4.20;3.80;;;25.30;44.60;;;;;;6119873;23;20384;-79
2022/07/08 11:43:43;;;;;;;4.87;3.30;;;25.30;44.50;;;;;;6116996;23;20504;-80
2022/07/08 11:46:17;;;;;;;4.20;3.80;;;25.30;44.50;;;;;;6144087;23;20377;-80
2022/07/08 11:48:43;;;;;;;4.83;3.70;;;25.30;44.50;;;;;;6117582;23;20153;-80
2022/07/08 11:54:32;;;;;;;8.63;3.80;;;25.30;44.50;;;;;;6142860;23;20229;-79
2022/07/08 11:57:00;;;;;;;5.37;3.10;;;25.30;44.50;;;;;;6117185;23;20420;-79
2022/07/08 11:59:32;;;;;;;5.70;3.80;;;25.30;45.10;;;;;;6113174;23;20405;-79
2022/07/08 12:01:59;;;;;;;4.30;3.40;;;25.30;44.50;;;;;;6114000;23;20358;-78
2022/07/08 12:04:27;;;;;;;5.37;3.70;;;25.30;44.50;;;;;;6112998;23;20425;-79
2022/07/08 12:06:58;;;;;;;5.77;3.83;;;25.30;44.50;;;;;;6113043;23;20382;-79
2022/07/08 12:09:27;;;;;;;5.00;4.00;;;25.30;44.50;;;;;;6114009;23;20382;-79
2022/07/08 12:12:08;;;;;;;3.53;3.23;;;25.30;44.50;;;;;;6112516;23;20382;-79
2022/07/08 12:14:51;;;;;;;3.80;3.37;;;25.30;44.50;;;;;;6112313;23;20397;-79
2022/07/08 12:17:27;;;;;;;4.17;3.47;;;25.30;44.50;;;;;;6113542;23;20381;-78
2022/07/08 12:19:57;;;;;;;3.20;2.90;;;25.30;44.50;;;;;;6112299;23;20389;-77
2022/07/08 12:22:46;;;;;;;5.07;3.43;;;25.30;44.50;;;;;;6112627;23;20388;-80
2022/07/08 12:25:13;;;;;;;4.03;3.20;;;25.30;44.50;;;;;;6113079;23;20374;-80
2022/07/08 12:27:39;;;;;;;4.80;3.50;;;25.30;44.50;;;;;;6114448;23;20380;-79
2022/07/08 12:30:06;;;;;;;5.73;3.17;;;25.30;44.50;;;;;;6113362;23;20354;-80
2022/07/08 12:32:43;;;;;;;5.97;3.27;;;25.30;44.50;;;;;;6112443;23;20417;-80
2022/07/08 12:35:10;;;;;;;3.50;3.20;;;25.30;44.50;;;;;;6112637;23;20820;-80
2022/07/08 12:37:37;;;;;;;5.47;3.30;;;25.30;44.60;;;;;;6111703;23;20397;-80
2022/07/08 12:40:19;;;;;;;8.23;3.67;;;25.30;44.60;;;;;;6111865;23;20381;-78
2022/07/08 12:43:02;;;;;;;3.83;2.90;;;25.30;44.60;;;;;;6113987;23;20374;-78
2022/07/08 12:45:29;;;;;;;3.63;3.27;;;25.30;44.50;;;;;;6112371;23;20417;-78
2022/07/08 12:48:02;;;;;;;4.97;3.20;;;25.30;44.50;;;;;;6111237;23;20386;-78
2022/07/08 12:50:29;;;;;;;4.20;3.40;;;25.30;44.60;;;;;;6088033;23;20390;-80
2022/07/08 12:52:55;;;;;;;5.80;3.27;;;25.30;44.60;;;;;;6111062;23;20442;-80
2022/07/08 12:55:21;;;;;;;4.80;3.00;;;25.40;44.60;;;;;;6112354;23;20377;-80
2022/07/08 12:57:48;;;;;;;5.23;3.57;;;25.30;44.60;;;;;;6111891;23;20503;-79
2022/07/08 13:00:14;;;;;;;3.70;3.40;;;25.30;44.60;;;;;;6112333;23;20453;-80
2022/07/08 13:02:41;;;;;;;3.43;3.00;;;25.30;44.60;;;;;;6110383;23;20437;-79
2022/07/08 13:05:07;;;;;;;4.33;3.37;;;25.30;44.60;;;;;;6112590;23;20462;-79
2022/07/08 13:07:34;;;;;;;3.97;3.43;;;25.30;44.60;;;;;;6114760;23;20385;-80
2022/07/08 13:10:00;;;;;;;3.23;2.90;;;25.30;44.50;;;;;;6117014;23;20397;-81
2022/07/08 13:12:26;;;;;;;3.70;3.10;;;25.30;44.50;;;;;;6093845;23;20382;-80
2022/07/08 13:14:53;;;;;;;3.87;3.00;;;25.30;45.10;;;;;;6119252;23;20374;-81
2022/07/08 13:17:24;;;;;;;6.10;2.87;;;25.30;44.40;;;;;;6117986;23;20382;-81
2022/07/08 13:19:51;;;;;;;3.57;2.87;;;25.30;44.30;;;;;;6119175;23;20459;-80
2022/07/08 13:22:20;;;;;;;4.23;3.50;;;25.30;44.30;;;;;;6119018;23;20378;-81
2022/07/08 13:24:46;;;;;;;4.10;3.03;;;25.30;44.60;;;;;;6117449;23;20428;-81
2022/07/08 13:27:12;;;;;;;3.90;2.70;;;25.30;44.60;;;;;;6117829;23;20385;-80
2022/07/08 13:29:39;;;;;;;5.97;3.60;;;25.30;44.60;;;;;;6119553;23;20398;-81
2022/07/08 13:32:07;;;;;;;3.00;2.70;;;25.30;44.80;;;;;;6118820;23;20398;-80
2022/07/08 13:34:33;;;;;;;2.70;2.37;;;25.30;44.50;;;;;;6117876;23;20242;-81